sensor_id;sensor_type;location;lat;lon;timestamp;P1;durP1;ratioP1;P2;durP2;ratioP2
4049;SDS011;2039;50.894;6.888;2023-02-14T00:01:46;80.13;;;22.50;;
4049;SDS011;2039;50.894;6.888;2023-02-14T00:04:12;75.43;;;18.08;;
4049;SDS011;2039;50.894;6.888;2023-02-14T00:06:39;76.82;;;19.13;;
4049;SDS011;2039;50.894;6.888;2023-02-14T00:09:06;75.30;;;17.88;;
4049;SDS011;2039;50.894;6.888;2023-02-14T00:11:35;79.47;;;20.67;;
4049;SDS011;2039;50.894;6.888;2023-02-14T00:14:01;77.03;;;21.63;;
4049;SDS011;2039;50.894;6.888;2023-02-14T00:16:45;79.10;;;20.17;;
4049;SDS011;2039;50.894;6.888;2023-02-14T00:19:12;74.47;;;19.53;;
4049;SDS011;2039;50.894;6.888;2023-02-14T00:21:39;75.28;;;17.40;;
4049;SDS011;2039;50.894;6.888;2023-02-14T00:24:13;75.78;;;21.15;;
4049;SDS011;2039;50.894;6.888;2023-02-14T00:26:41;79.80;;;25.42;;
4049;SDS011;2039;50.894;6.888;2023-02-14T00:29:08;78.40;;;25.25;;
4049;SDS011;2039;50.894;6.888;2023-02-14T00:31:35;78.97;;;28.55;;
4049;SDS011;2039;50.894;6.888;2023-02-14T00:34:02;78.87;;;29.40;;
4049;SDS011;2039;50.894;6.888;2023-02-14T00:36:28;75.05;;;20.70;;
4049;SDS011;2039;50.894;6.888;2023-02-14T00:38:54;87.77;;;21.37;;
4049;SDS011;2039;50.894;6.888;2023-02-14T00:41:19;75.57;;;18.70;;
4049;SDS011;2039;50.894;6.888;2023-02-14T00:43:46;75.38;;;16.23;;
4049;SDS011;2039;50.894;6.888;2023-02-14T00:46:13;74.28;;;16.92;;
4049;SDS011;2039;50.894;6.888;2023-02-14T00:48:39;76.82;;;16.25;;
4049;SDS011;2039;50.894;6.888;2023-02-14T00:51:06;83.13;;;17.00;;
4049;SDS011;2039;50.894;6.888;2023-02-14T00:53:32;78.97;;;15.43;;
4049;SDS011;2039;50.894;6.888;2023-02-14T00:55:58;82.40;;;17.20;;
4049;SDS011;2039;50.894;6.888;2023-02-14T00:58:27;77.82;;;21.15;;
4049;SDS011;2039;50.894;6.888;2023-02-14T01:00:53;79.23;;;19.10;;
4049;SDS011;2039;50.894;6.888;2023-02-14T01:03:19;81.70;;;18.60;;
4049;SDS011;2039;50.894;6.888;2023-02-14T01:05:45;79.57;;;21.20;;
4049;SDS011;2039;50.894;6.888;2023-02-14T01:08:12;78.97;;;19.85;;
4049;SDS011;2039;50.894;6.888;2023-02-14T01:10:38;77.77;;;25.20;;
4049;SDS011;2039;50.894;6.888;2023-02-14T01:13:04;79.68;;;28.42;;
4049;SDS011;2039;50.894;6.888;2023-02-14T01:15:30;77.43;;;26.73;;
4049;SDS011;2039;50.894;6.888;2023-02-14T01:17:56;83.68;;;36.35;;
4049;SDS011;2039;50.894;6.888;2023-02-14T01:20:23;86.10;;;39.80;;
4049;SDS011;2039;50.894;6.888;2023-02-14T01:22:49;89.50;;;47.95;;
4049;SDS011;2039;50.894;6.888;2023-02-14T01:25:15;81.93;;;36.10;;
4049;SDS011;2039;50.894;6.888;2023-02-14T01:27:40;82.30;;;39.33;;
4049;SDS011;2039;50.894;6.888;2023-02-14T01:30:06;85.67;;;42.43;;
4049;SDS011;2039;50.894;6.888;2023-02-14T01:32:32;84.03;;;41.58;;
4049;SDS011;2039;50.894;6.888;2023-02-14T01:34:58;85.17;;;38.07;;
4049;SDS011;2039;50.894;6.888;2023-02-14T01:37:24;83.20;;;34.03;;
4049;SDS011;2039;50.894;6.888;2023-02-14T01:39:50;83.90;;;33.03;;
4049;SDS011;2039;50.894;6.888;2023-02-14T01:42:15;79.70;;;29.70;;
4049;SDS011;2039;50.894;6.888;2023-02-14T01:47:19;82.40;;;35.53;;
4049;SDS011;2039;50.894;6.888;2023-02-14T01:49:46;83.60;;;35.78;;
4049;SDS011;2039;50.894;6.888;2023-02-14T01:52:28;83.07;;;40.58;;
4049;SDS011;2039;50.894;6.888;2023-02-14T01:55:05;85.82;;;43.78;;
4049;SDS011;2039;50.894;6.888;2023-02-14T01:57:37;85.82;;;40.65;;
4049;SDS011;2039;50.894;6.888;2023-02-14T02:00:10;89.25;;;42.58;;
4049;SDS011;2039;50.894;6.888;2023-02-14T02:02:55;85.05;;;33.97;;
4049;SDS011;2039;50.894;6.888;2023-02-14T02:05:23;79.40;;;31.30;;
4049;SDS011;2039;50.894;6.888;2023-02-14T02:07:51;81.43;;;35.53;;
4049;SDS011;2039;50.894;6.888;2023-02-14T02:10:21;81.20;;;32.83;;
4049;SDS011;2039;50.894;6.888;2023-02-14T02:12:47;82.87;;;35.00;;
4049;SDS011;2039;50.894;6.888;2023-02-14T02:15:16;85.45;;;33.40;;
4049;SDS011;2039;50.894;6.888;2023-02-14T02:45:11;83.53;;;36.08;;
4049;SDS011;2039;50.894;6.888;2023-02-14T02:47:47;83.05;;;30.77;;
4049;SDS011;2039;50.894;6.888;2023-02-14T02:55:49;84.57;;;33.90;;
4049;SDS011;2039;50.894;6.888;2023-02-14T03:01:34;84.18;;;36.25;;
4049;SDS011;2039;50.894;6.888;2023-02-14T03:04:06;78.53;;;28.80;;
4049;SDS011;2039;50.894;6.888;2023-02-14T03:06:54;84.53;;;30.00;;
4049;SDS011;2039;50.894;6.888;2023-02-14T03:12:05;80.20;;;28.48;;
4049;SDS011;2039;50.894;6.888;2023-02-14T03:14:49;80.30;;;31.30;;
4049;SDS011;2039;50.894;6.888;2023-02-14T03:17:35;82.20;;;30.50;;
4049;SDS011;2039;50.894;6.888;2023-02-14T03:20:13;82.40;;;34.53;;
4049;SDS011;2039;50.894;6.888;2023-02-14T03:33:30;84.15;;;33.20;;
4049;SDS011;2039;50.894;6.888;2023-02-14T03:36:10;81.85;;;28.45;;
4049;SDS011;2039;50.894;6.888;2023-02-14T03:38:54;82.43;;;30.10;;
4049;SDS011;2039;50.894;6.888;2023-02-14T03:41:27;83.40;;;29.38;;
4049;SDS011;2039;50.894;6.888;2023-02-14T03:43:58;82.32;;;27.63;;
4049;SDS011;2039;50.894;6.888;2023-02-14T03:46:32;80.97;;;28.42;;
4049;SDS011;2039;50.894;6.888;2023-02-14T03:49:12;85.35;;;27.50;;
4049;SDS011;2039;50.894;6.888;2023-02-14T03:51:42;78.10;;;24.98;;
4049;SDS011;2039;50.894;6.888;2023-02-14T03:54:11;86.40;;;27.45;;
4049;SDS011;2039;50.894;6.888;2023-02-14T03:59:29;81.40;;;27.88;;
4049;SDS011;2039;50.894;6.888;2023-02-14T04:01:56;79.72;;;25.77;;
4049;SDS011;2039;50.894;6.888;2023-02-14T04:04:45;82.95;;;26.88;;
4049;SDS011;2039;50.894;6.888;2023-02-14T04:07:14;83.28;;;27.73;;
4049;SDS011;2039;50.894;6.888;2023-02-14T04:09:42;82.57;;;25.83;;
4049;SDS011;2039;50.894;6.888;2023-02-14T04:12:09;83.32;;;25.38;;
4049;SDS011;2039;50.894;6.888;2023-02-14T04:14:35;86.28;;;23.00;;
4049;SDS011;2039;50.894;6.888;2023-02-14T04:17:01;77.95;;;20.42;;
4049;SDS011;2039;50.894;6.888;2023-02-14T04:19:46;85.90;;;19.75;;
4049;SDS011;2039;50.894;6.888;2023-02-14T04:22:14;87.00;;;22.87;;
4049;SDS011;2039;50.894;6.888;2023-02-14T04:24:40;82.40;;;20.38;;
4049;SDS011;2039;50.894;6.888;2023-02-14T04:27:06;81.43;;;20.57;;
4049;SDS011;2039;50.894;6.888;2023-02-14T04:29:45;81.38;;;20.05;;
4049;SDS011;2039;50.894;6.888;2023-02-14T04:32:16;79.95;;;19.33;;
4049;SDS011;2039;50.894;6.888;2023-02-14T04:34:46;83.65;;;18.05;;
4049;SDS011;2039;50.894;6.888;2023-02-14T04:37:15;80.03;;;19.70;;
4049;SDS011;2039;50.894;6.888;2023-02-14T04:39:43;82.70;;;19.65;;
4049;SDS011;2039;50.894;6.888;2023-02-14T04:42:09;81.20;;;20.90;;
4049;SDS011;2039;50.894;6.888;2023-02-14T04:44:36;80.63;;;21.17;;
4049;SDS011;2039;50.894;6.888;2023-02-14T04:47:02;81.27;;;23.70;;
4049;SDS011;2039;50.894;6.888;2023-02-14T04:49:32;82.97;;;22.55;;
4049;SDS011;2039;50.894;6.888;2023-02-14T04:51:58;82.20;;;25.73;;
4049;SDS011;2039;50.894;6.888;2023-02-14T04:54:24;84.47;;;25.13;;
4049;SDS011;2039;50.894;6.888;2023-02-14T04:56:55;86.43;;;21.23;;
4049;SDS011;2039;50.894;6.888;2023-02-14T04:59:24;81.80;;;20.23;;
4049;SDS011;2039;50.894;6.888;2023-02-14T05:01:51;80.30;;;20.45;;
4049;SDS011;2039;50.894;6.888;2023-02-14T05:04:20;85.45;;;24.30;;
4049;SDS011;2039;50.894;6.888;2023-02-14T05:06:55;80.22;;;21.65;;
4049;SDS011;2039;50.894;6.888;2023-02-14T05:09:21;84.00;;;20.40;;
4049;SDS011;2039;50.894;6.888;2023-02-14T05:11:47;86.50;;;23.63;;
4049;SDS011;2039;50.894;6.888;2023-02-14T05:14:22;88.75;;;24.85;;
4049;SDS011;2039;50.894;6.888;2023-02-14T05:16:54;87.93;;;23.40;;
4049;SDS011;2039;50.894;6.888;2023-02-14T05:19:22;87.78;;;23.77;;
4049;SDS011;2039;50.894;6.888;2023-02-14T05:21:48;88.53;;;23.38;;
4049;SDS011;2039;50.894;6.888;2023-02-14T05:24:15;84.60;;;24.38;;
4049;SDS011;2039;50.894;6.888;2023-02-14T05:26:44;86.90;;;25.35;;
4049;SDS011;2039;50.894;6.888;2023-02-14T05:29:10;88.22;;;23.88;;
4049;SDS011;2039;50.894;6.888;2023-02-14T05:31:39;88.47;;;24.35;;
4049;SDS011;2039;50.894;6.888;2023-02-14T05:34:05;87.45;;;24.13;;
4049;SDS011;2039;50.894;6.888;2023-02-14T05:36:33;89.63;;;24.45;;
4049;SDS011;2039;50.894;6.888;2023-02-14T05:39:02;85.68;;;24.77;;
4049;SDS011;2039;50.894;6.888;2023-02-14T05:41:28;85.45;;;23.05;;
4049;SDS011;2039;50.894;6.888;2023-02-14T05:43:54;85.88;;;24.08;;
4049;SDS011;2039;50.894;6.888;2023-02-14T05:46:20;85.78;;;24.85;;
4049;SDS011;2039;50.894;6.888;2023-02-14T05:48:55;84.30;;;22.27;;
4049;SDS011;2039;50.894;6.888;2023-02-14T05:51:24;85.00;;;25.40;;
4049;SDS011;2039;50.894;6.888;2023-02-14T05:53:53;87.40;;;22.02;;
4049;SDS011;2039;50.894;6.888;2023-02-14T05:56:26;90.88;;;23.90;;
4049;SDS011;2039;50.894;6.888;2023-02-14T05:58:51;87.35;;;23.80;;
4049;SDS011;2039;50.894;6.888;2023-02-14T06:01:17;89.55;;;24.77;;
4049;SDS011;2039;50.894;6.888;2023-02-14T06:03:43;86.10;;;21.23;;
4049;SDS011;2039;50.894;6.888;2023-02-14T06:06:09;87.80;;;22.90;;
4049;SDS011;2039;50.894;6.888;2023-02-14T06:08:35;88.73;;;24.67;;
4049;SDS011;2039;50.894;6.888;2023-02-14T06:11:01;91.40;;;27.20;;
4049;SDS011;2039;50.894;6.888;2023-02-14T06:13:27;90.13;;;22.07;;
4049;SDS011;2039;50.894;6.888;2023-02-14T06:15:53;87.90;;;23.87;;
4049;SDS011;2039;50.894;6.888;2023-02-14T06:18:58;91.53;;;24.85;;
4049;SDS011;2039;50.894;6.888;2023-02-14T06:21:34;88.07;;;22.95;;
4049;SDS011;2039;50.894;6.888;2023-02-14T06:24:03;86.45;;;23.27;;
4049;SDS011;2039;50.894;6.888;2023-02-14T06:26:32;89.07;;;23.25;;
4049;SDS011;2039;50.894;6.888;2023-02-14T06:29:00;93.70;;;26.52;;
4049;SDS011;2039;50.894;6.888;2023-02-14T06:31:27;86.75;;;25.00;;
4049;SDS011;2039;50.894;6.888;2023-02-14T06:33:53;93.27;;;28.57;;
4049;SDS011;2039;50.894;6.888;2023-02-14T06:36:22;93.35;;;27.00;;
4049;SDS011;2039;50.894;6.888;2023-02-14T06:38:48;89.40;;;24.60;;
4049;SDS011;2039;50.894;6.888;2023-02-14T06:41:15;92.67;;;26.20;;
4049;SDS011;2039;50.894;6.888;2023-02-14T06:43:42;92.53;;;26.92;;
4049;SDS011;2039;50.894;6.888;2023-02-14T06:46:09;93.75;;;27.05;;
4049;SDS011;2039;50.894;6.888;2023-02-14T06:48:38;91.05;;;26.65;;
4049;SDS011;2039;50.894;6.888;2023-02-14T06:51:03;88.20;;;27.10;;
4049;SDS011;2039;50.894;6.888;2023-02-14T06:53:29;93.77;;;25.83;;
4049;SDS011;2039;50.894;6.888;2023-02-14T06:55:55;90.07;;;27.88;;
4049;SDS011;2039;50.894;6.888;2023-02-14T06:58:21;92.40;;;27.37;;
4049;SDS011;2039;50.894;6.888;2023-02-14T07:00:47;96.43;;;27.37;;
4049;SDS011;2039;50.894;6.888;2023-02-14T07:03:25;90.20;;;26.70;;
4049;SDS011;2039;50.894;6.888;2023-02-14T07:05:51;88.97;;;22.30;;
4049;SDS011;2039;50.894;6.888;2023-02-14T07:08:18;93.43;;;27.27;;
4049;SDS011;2039;50.894;6.888;2023-02-14T07:10:44;89.43;;;25.15;;
4049;SDS011;2039;50.894;6.888;2023-02-14T07:13:10;86.93;;;25.42;;
4049;SDS011;2039;50.894;6.888;2023-02-14T07:15:37;89.00;;;23.30;;
4049;SDS011;2039;50.894;6.888;2023-02-14T07:18:02;92.90;;;27.63;;
4049;SDS011;2039;50.894;6.888;2023-02-14T07:20:35;91.03;;;26.35;;
4049;SDS011;2039;50.894;6.888;2023-02-14T07:23:01;94.82;;;28.45;;
4049;SDS011;2039;50.894;6.888;2023-02-14T07:25:27;90.63;;;25.20;;
4049;SDS011;2039;50.894;6.888;2023-02-14T07:28:02;97.10;;;24.80;;
4049;SDS011;2039;50.894;6.888;2023-02-14T07:30:28;96.00;;;27.73;;
4049;SDS011;2039;50.894;6.888;2023-02-14T07:32:55;94.70;;;26.50;;
4049;SDS011;2039;50.894;6.888;2023-02-14T07:35:21;93.82;;;28.63;;
4049;SDS011;2039;50.894;6.888;2023-02-14T07:37:48;91.37;;;23.80;;
4049;SDS011;2039;50.894;6.888;2023-02-14T07:40:15;90.70;;;23.30;;
4049;SDS011;2039;50.894;6.888;2023-02-14T07:42:41;100.00;;;25.03;;
4049;SDS011;2039;50.894;6.888;2023-02-14T07:45:10;95.40;;;24.60;;
4049;SDS011;2039;50.894;6.888;2023-02-14T07:47:36;108.50;;;25.40;;
4049;SDS011;2039;50.894;6.888;2023-02-14T07:50:05;92.87;;;24.70;;
4049;SDS011;2039;50.894;6.888;2023-02-14T07:52:32;95.65;;;23.42;;
4049;SDS011;2039;50.894;6.888;2023-02-14T07:55:00;98.47;;;24.10;;
4049;SDS011;2039;50.894;6.888;2023-02-14T07:57:28;101.37;;;24.60;;
4049;SDS011;2039;50.894;6.888;2023-02-14T07:59:57;97.50;;;28.02;;
4049;SDS011;2039;50.894;6.888;2023-02-14T08:02:22;107.63;;;26.87;;
4049;SDS011;2039;50.894;6.888;2023-02-14T08:04:48;96.60;;;25.07;;
4049;SDS011;2039;50.894;6.888;2023-02-14T08:07:17;99.60;;;25.73;;
4049;SDS011;2039;50.894;6.888;2023-02-14T08:09:43;96.10;;;26.42;;
4049;SDS011;2039;50.894;6.888;2023-02-14T08:12:08;97.17;;;27.00;;
4049;SDS011;2039;50.894;6.888;2023-02-14T08:14:53;97.65;;;24.90;;
4049;SDS011;2039;50.894;6.888;2023-02-14T08:17:39;104.00;;;23.48;;
4049;SDS011;2039;50.894;6.888;2023-02-14T08:20:05;91.03;;;23.60;;
4049;SDS011;2039;50.894;6.888;2023-02-14T08:22:31;102.45;;;25.33;;
4049;SDS011;2039;50.894;6.888;2023-02-14T08:24:57;95.47;;;25.80;;
4049;SDS011;2039;50.894;6.888;2023-02-14T08:27:23;97.83;;;26.20;;
4049;SDS011;2039;50.894;6.888;2023-02-14T08:29:49;98.60;;;30.10;;
4049;SDS011;2039;50.894;6.888;2023-02-14T08:32:15;102.10;;;27.27;;
4049;SDS011;2039;50.894;6.888;2023-02-14T08:34:45;98.93;;;26.20;;
4049;SDS011;2039;50.894;6.888;2023-02-14T08:37:11;97.25;;;26.83;;
4049;SDS011;2039;50.894;6.888;2023-02-14T08:39:37;98.38;;;25.48;;
4049;SDS011;2039;50.894;6.888;2023-02-14T08:42:08;116.70;;;47.75;;
4049;SDS011;2039;50.894;6.888;2023-02-14T08:44:41;95.85;;;24.33;;
4049;SDS011;2039;50.894;6.888;2023-02-14T08:47:14;96.85;;;31.67;;
4049;SDS011;2039;50.894;6.888;2023-02-14T08:49:39;96.40;;;26.33;;
4049;SDS011;2039;50.894;6.888;2023-02-14T08:52:09;98.15;;;29.40;;
4049;SDS011;2039;50.894;6.888;2023-02-14T08:54:34;97.70;;;25.07;;
4049;SDS011;2039;50.894;6.888;2023-02-14T08:57:00;102.23;;;29.43;;
4049;SDS011;2039;50.894;6.888;2023-02-14T08:59:27;99.45;;;27.33;;
4049;SDS011;2039;50.894;6.888;2023-02-14T09:02:02;97.03;;;28.35;;
4049;SDS011;2039;50.894;6.888;2023-02-14T09:04:34;94.28;;;26.83;;
4049;SDS011;2039;50.894;6.888;2023-02-14T09:07:00;100.28;;;25.50;;
4049;SDS011;2039;50.894;6.888;2023-02-14T09:09:28;102.93;;;28.10;;
4049;SDS011;2039;50.894;6.888;2023-02-14T09:11:55;95.95;;;27.85;;
4049;SDS011;2039;50.894;6.888;2023-02-14T09:14:27;101.90;;;27.92;;
4049;SDS011;2039;50.894;6.888;2023-02-14T09:16:56;99.47;;;27.58;;
4049;SDS011;2039;50.894;6.888;2023-02-14T09:19:22;100.13;;;30.13;;
4049;SDS011;2039;50.894;6.888;2023-02-14T09:21:51;100.18;;;28.50;;
4049;SDS011;2039;50.894;6.888;2023-02-14T09:24:28;94.10;;;27.80;;
4049;SDS011;2039;50.894;6.888;2023-02-14T09:26:57;94.78;;;27.02;;
4049;SDS011;2039;50.894;6.888;2023-02-14T09:29:32;102.40;;;27.58;;
4049;SDS011;2039;50.894;6.888;2023-02-14T09:32:00;95.28;;;32.10;;
4049;SDS011;2039;50.894;6.888;2023-02-14T09:34:32;94.97;;;27.35;;
4049;SDS011;2039;50.894;6.888;2023-02-14T09:37:16;96.07;;;24.58;;
4049;SDS011;2039;50.894;6.888;2023-02-14T09:40:01;101.82;;;24.63;;
4049;SDS011;2039;50.894;6.888;2023-02-14T09:50:09;97.18;;;24.55;;
4049;SDS011;2039;50.894;6.888;2023-02-14T09:52:46;95.43;;;24.98;;
4049;SDS011;2039;50.894;6.888;2023-02-14T09:55:16;99.70;;;25.20;;
4049;SDS011;2039;50.894;6.888;2023-02-14T09:57:44;98.88;;;24.13;;
4049;SDS011;2039;50.894;6.888;2023-02-14T10:00:26;93.32;;;25.73;;
4049;SDS011;2039;50.894;6.888;2023-02-14T10:11:17;101.18;;;30.55;;
4049;SDS011;2039;50.894;6.888;2023-02-14T10:16:52;92.85;;;27.13;;
4049;SDS011;2039;50.894;6.888;2023-02-14T10:19:59;96.28;;;25.85;;
4049;SDS011;2039;50.894;6.888;2023-02-14T10:22:40;94.03;;;27.67;;
4049;SDS011;2039;50.894;6.888;2023-02-14T10:25:16;105.55;;;28.50;;
4049;SDS011;2039;50.894;6.888;2023-02-14T10:27:48;93.45;;;26.80;;
4049;SDS011;2039;50.894;6.888;2023-02-14T10:30:15;94.82;;;23.40;;
4049;SDS011;2039;50.894;6.888;2023-02-14T10:49:03;89.85;;;19.50;;
4049;SDS011;2039;50.894;6.888;2023-02-14T10:51:38;86.68;;;18.20;;
4049;SDS011;2039;50.894;6.888;2023-02-14T10:56:52;87.47;;;19.85;;
4049;SDS011;2039;50.894;6.888;2023-02-14T10:59:26;90.10;;;20.05;;
4049;SDS011;2039;50.894;6.888;2023-02-14T11:02:07;85.95;;;18.90;;
4049;SDS011;2039;50.894;6.888;2023-02-14T11:04:38;90.38;;;19.35;;
4049;SDS011;2039;50.894;6.888;2023-02-14T11:07:10;92.57;;;19.35;;
4049;SDS011;2039;50.894;6.888;2023-02-14T11:09:39;91.05;;;19.85;;
4049;SDS011;2039;50.894;6.888;2023-02-14T11:12:04;97.83;;;21.10;;
4049;SDS011;2039;50.894;6.888;2023-02-14T11:14:36;86.53;;;18.25;;
4049;SDS011;2039;50.894;6.888;2023-02-14T11:17:26;92.40;;;20.35;;
4049;SDS011;2039;50.894;6.888;2023-02-14T11:20:01;87.88;;;18.50;;
4049;SDS011;2039;50.894;6.888;2023-02-14T11:22:39;90.00;;;19.90;;
4049;SDS011;2039;50.894;6.888;2023-02-14T11:25:18;88.35;;;19.92;;
4049;SDS011;2039;50.894;6.888;2023-02-14T11:27:50;88.53;;;18.42;;
4049;SDS011;2039;50.894;6.888;2023-02-14T11:30:33;85.72;;;16.92;;
4049;SDS011;2039;50.894;6.888;2023-02-14T11:33:03;92.15;;;18.48;;
4049;SDS011;2039;50.894;6.888;2023-02-14T11:35:29;89.07;;;17.52;;
4049;SDS011;2039;50.894;6.888;2023-02-14T11:38:08;89.95;;;17.67;;
4049;SDS011;2039;50.894;6.888;2023-02-14T11:40:54;90.00;;;19.90;;
4049;SDS011;2039;50.894;6.888;2023-02-14T11:43:41;90.95;;;20.27;;
4049;SDS011;2039;50.894;6.888;2023-02-14T11:49:05;90.88;;;18.63;;
4049;SDS011;2039;50.894;6.888;2023-02-14T11:51:52;85.38;;;17.05;;
4049;SDS011;2039;50.894;6.888;2023-02-14T11:54:30;87.18;;;18.77;;
4049;SDS011;2039;50.894;6.888;2023-02-14T11:57:05;85.60;;;15.73;;
4049;SDS011;2039;50.894;6.888;2023-02-14T11:59:44;85.15;;;16.80;;
4049;SDS011;2039;50.894;6.888;2023-02-14T12:05:00;86.18;;;18.13;;
4049;SDS011;2039;50.894;6.888;2023-02-14T12:10:07;85.82;;;16.90;;
4049;SDS011;2039;50.894;6.888;2023-02-14T12:30:05;83.47;;;17.80;;
4049;SDS011;2039;50.894;6.888;2023-02-14T12:35:15;83.03;;;16.35;;
4049;SDS011;2039;50.894;6.888;2023-02-14T12:54:16;81.88;;;17.58;;
4049;SDS011;2039;50.894;6.888;2023-02-14T13:16:43;84.97;;;17.00;;
4049;SDS011;2039;50.894;6.888;2023-02-14T13:22:41;90.07;;;18.45;;
4049;SDS011;2039;50.894;6.888;2023-02-14T13:28:16;86.38;;;19.17;;
4049;SDS011;2039;50.894;6.888;2023-02-14T13:30:43;81.35;;;16.38;;
4049;SDS011;2039;50.894;6.888;2023-02-14T13:38:54;85.68;;;16.65;;
4049;SDS011;2039;50.894;6.888;2023-02-14T13:47:17;87.78;;;18.05;;
4049;SDS011;2039;50.894;6.888;2023-02-14T13:50:19;86.57;;;19.15;;
4049;SDS011;2039;50.894;6.888;2023-02-14T13:52:51;85.25;;;17.73;;
4049;SDS011;2039;50.894;6.888;2023-02-14T13:55:28;85.40;;;16.60;;
4049;SDS011;2039;50.894;6.888;2023-02-14T13:58:06;83.07;;;17.27;;
4049;SDS011;2039;50.894;6.888;2023-02-14T14:00:43;86.20;;;16.88;;
4049;SDS011;2039;50.894;6.888;2023-02-14T14:06:05;85.28;;;17.52;;
4049;SDS011;2039;50.894;6.888;2023-02-14T14:08:36;84.88;;;18.08;;
4049;SDS011;2039;50.894;6.888;2023-02-14T14:11:03;79.70;;;16.05;;
4049;SDS011;2039;50.894;6.888;2023-02-14T14:21:28;80.95;;;16.13;;
4049;SDS011;2039;50.894;6.888;2023-02-14T14:26:57;83.60;;;18.50;;
4049;SDS011;2039;50.894;6.888;2023-02-14T14:29:36;86.53;;;18.20;;
4049;SDS011;2039;50.894;6.888;2023-02-14T14:32:09;90.55;;;16.10;;
4049;SDS011;2039;50.894;6.888;2023-02-14T14:35:03;94.78;;;18.85;;
4049;SDS011;2039;50.894;6.888;2023-02-14T14:37:50;87.97;;;19.05;;
4049;SDS011;2039;50.894;6.888;2023-02-14T14:42:49;82.70;;;15.20;;
4049;SDS011;2039;50.894;6.888;2023-02-14T14:45:19;82.10;;;14.90;;
4049;SDS011;2039;50.894;6.888;2023-02-14T14:47:49;81.80;;;15.23;;
4049;SDS011;2039;50.894;6.888;2023-02-14T14:50:21;83.35;;;15.32;;
4049;SDS011;2039;50.894;6.888;2023-02-14T14:53:05;82.90;;;16.08;;
4049;SDS011;2039;50.894;6.888;2023-02-14T14:55:37;80.38;;;13.63;;
4049;SDS011;2039;50.894;6.888;2023-02-14T14:58:27;86.53;;;16.20;;
4049;SDS011;2039;50.894;6.888;2023-02-14T15:01:02;80.60;;;14.57;;
4049;SDS011;2039;50.894;6.888;2023-02-14T15:03:29;84.97;;;15.98;;
4049;SDS011;2039;50.894;6.888;2023-02-14T15:08:41;79.45;;;14.30;;
4049;SDS011;2039;50.894;6.888;2023-02-14T15:14:10;83.18;;;14.27;;
4049;SDS011;2039;50.894;6.888;2023-02-14T15:16:44;84.90;;;15.50;;
4049;SDS011;2039;50.894;6.888;2023-02-14T15:19:20;79.40;;;14.00;;
4049;SDS011;2039;50.894;6.888;2023-02-14T15:21:55;82.07;;;15.18;;
4049;SDS011;2039;50.894;6.888;2023-02-14T15:24:21;80.68;;;12.85;;
4049;SDS011;2039;50.894;6.888;2023-02-14T15:26:47;80.07;;;13.87;;
4049;SDS011;2039;50.894;6.888;2023-02-14T15:31:49;82.32;;;14.15;;
4049;SDS011;2039;50.894;6.888;2023-02-14T15:34:23;80.25;;;13.73;;
4049;SDS011;2039;50.894;6.888;2023-02-14T15:36:53;80.38;;;13.27;;
4049;SDS011;2039;50.894;6.888;2023-02-14T15:39:27;81.88;;;13.80;;
4049;SDS011;2039;50.894;6.888;2023-02-14T15:41:57;85.45;;;15.30;;
4049;SDS011;2039;50.894;6.888;2023-02-14T15:44:24;80.10;;;16.00;;
4049;SDS011;2039;50.894;6.888;2023-02-14T15:46:58;83.05;;;14.85;;
4049;SDS011;2039;50.894;6.888;2023-02-14T15:49:34;83.03;;;14.43;;
4049;SDS011;2039;50.894;6.888;2023-02-14T15:52:04;83.28;;;15.40;;
4049;SDS011;2039;50.894;6.888;2023-02-14T15:54:32;78.55;;;13.90;;
4049;SDS011;2039;50.894;6.888;2023-02-14T15:57:15;83.82;;;15.45;;
4049;SDS011;2039;50.894;6.888;2023-02-14T15:59:45;81.65;;;14.80;;
4049;SDS011;2039;50.894;6.888;2023-02-14T16:07:54;78.45;;;14.43;;
4049;SDS011;2039;50.894;6.888;2023-02-14T16:10:33;81.40;;;15.20;;
4049;SDS011;2039;50.894;6.888;2023-02-14T16:15:29;83.65;;;15.15;;
4049;SDS011;2039;50.894;6.888;2023-02-14T16:17:57;81.57;;;15.20;;
4049;SDS011;2039;50.894;6.888;2023-02-14T16:25:48;80.22;;;15.10;;
4049;SDS011;2039;50.894;6.888;2023-02-14T16:28:15;83.65;;;16.35;;
4049;SDS011;2039;50.894;6.888;2023-02-14T16:30:41;82.70;;;15.45;;
4049;SDS011;2039;50.894;6.888;2023-02-14T16:33:19;80.35;;;14.85;;
4049;SDS011;2039;50.894;6.888;2023-02-14T16:35:47;85.13;;;14.80;;
4049;SDS011;2039;50.894;6.888;2023-02-14T16:38:14;82.22;;;14.40;;
4049;SDS011;2039;50.894;6.888;2023-02-14T16:40:51;79.18;;;14.32;;
4049;SDS011;2039;50.894;6.888;2023-02-14T16:43:18;82.50;;;14.40;;
4049;SDS011;2039;50.894;6.888;2023-02-14T16:45:45;82.97;;;15.57;;
4049;SDS011;2039;50.894;6.888;2023-02-14T16:48:11;82.28;;;15.13;;
4049;SDS011;2039;50.894;6.888;2023-02-14T16:50:39;83.18;;;16.20;;
4049;SDS011;2039;50.894;6.888;2023-02-14T16:53:09;83.38;;;15.40;;
4049;SDS011;2039;50.894;6.888;2023-02-14T16:55:51;83.72;;;15.50;;
4049;SDS011;2039;50.894;6.888;2023-02-14T16:58:18;80.35;;;13.93;;
4049;SDS011;2039;50.894;6.888;2023-02-14T17:00:44;83.00;;;14.60;;
4049;SDS011;2039;50.894;6.888;2023-02-14T17:03:10;87.47;;;16.63;;
4049;SDS011;2039;50.894;6.888;2023-02-14T17:05:36;81.67;;;17.70;;
4049;SDS011;2039;50.894;6.888;2023-02-14T17:08:03;82.22;;;15.90;;
4049;SDS011;2039;50.894;6.888;2023-02-14T17:10:31;83.60;;;16.42;;
4049;SDS011;2039;50.894;6.888;2023-02-14T17:12:57;85.15;;;16.55;;
4049;SDS011;2039;50.894;6.888;2023-02-14T17:15:25;84.82;;;18.10;;
4049;SDS011;2039;50.894;6.888;2023-02-14T17:17:54;89.45;;;17.70;;
4049;SDS011;2039;50.894;6.888;2023-02-14T17:20:28;84.22;;;17.50;;
4049;SDS011;2039;50.894;6.888;2023-02-14T17:22:54;83.95;;;16.33;;
4049;SDS011;2039;50.894;6.888;2023-02-14T17:25:21;83.28;;;16.70;;
4049;SDS011;2039;50.894;6.888;2023-02-14T17:27:47;83.47;;;17.13;;
4049;SDS011;2039;50.894;6.888;2023-02-14T17:30:13;82.75;;;15.55;;
4049;SDS011;2039;50.894;6.888;2023-02-14T17:32:40;83.93;;;16.80;;
4049;SDS011;2039;50.894;6.888;2023-02-14T17:35:06;82.75;;;15.68;;
4049;SDS011;2039;50.894;6.888;2023-02-14T17:37:33;80.20;;;15.35;;
4049;SDS011;2039;50.894;6.888;2023-02-14T17:39:59;86.45;;;17.58;;
4049;SDS011;2039;50.894;6.888;2023-02-14T17:42:25;82.83;;;16.00;;
4049;SDS011;2039;50.894;6.888;2023-02-14T17:44:51;83.27;;;16.37;;
4049;SDS011;2039;50.894;6.888;2023-02-14T17:47:17;85.80;;;17.00;;
4049;SDS011;2039;50.894;6.888;2023-02-14T17:49:43;84.78;;;16.90;;
4049;SDS011;2039;50.894;6.888;2023-02-14T17:52:13;88.10;;;19.05;;
4049;SDS011;2039;50.894;6.888;2023-02-14T17:54:39;84.75;;;17.40;;
4049;SDS011;2039;50.894;6.888;2023-02-14T17:57:05;93.10;;;18.55;;
4049;SDS011;2039;50.894;6.888;2023-02-14T17:59:31;91.03;;;18.37;;
4049;SDS011;2039;50.894;6.888;2023-02-14T18:01:57;85.13;;;18.15;;
4049;SDS011;2039;50.894;6.888;2023-02-14T18:04:23;86.53;;;16.67;;
4049;SDS011;2039;50.894;6.888;2023-02-14T18:06:49;86.30;;;18.77;;
4049;SDS011;2039;50.894;6.888;2023-02-14T18:09:24;87.10;;;18.60;;
4049;SDS011;2039;50.894;6.888;2023-02-14T18:11:50;83.30;;;16.43;;
4049;SDS011;2039;50.894;6.888;2023-02-14T18:14:19;87.85;;;17.48;;
4049;SDS011;2039;50.894;6.888;2023-02-14T18:16:45;84.50;;;16.45;;
4049;SDS011;2039;50.894;6.888;2023-02-14T18:19:11;84.73;;;17.07;;
4049;SDS011;2039;50.894;6.888;2023-02-14T18:21:40;88.28;;;18.60;;
4049;SDS011;2039;50.894;6.888;2023-02-14T18:24:07;87.53;;;18.42;;
4049;SDS011;2039;50.894;6.888;2023-02-14T18:26:34;86.95;;;16.88;;
4049;SDS011;2039;50.894;6.888;2023-02-14T18:29:04;86.07;;;17.25;;
4049;SDS011;2039;50.894;6.888;2023-02-14T18:31:34;85.03;;;17.90;;
4049;SDS011;2039;50.894;6.888;2023-02-14T18:34:00;85.10;;;18.77;;
4049;SDS011;2039;50.894;6.888;2023-02-14T18:36:26;84.85;;;17.95;;
4049;SDS011;2039;50.894;6.888;2023-02-14T18:38:53;85.93;;;19.67;;
4049;SDS011;2039;50.894;6.888;2023-02-14T18:41:20;91.47;;;23.77;;